Time;durP1;ratioP1;P1;durP2;ratioP2;P2;SDS_P1;SDS_P2;PMS_P1;PMS_P2;Temp;Humidity;BMP_temperature;BMP_pressure;BME280_temperature;BME280_humidity;BME280_pressure;Samples;Min_cycle;Max_cycle;Signal;HPM_P1;HPM_P2
2021/12/01 00:04:45;;;;;;;16.35;11.30;;;4.90;81.10;;;;;;10824952;33;20058;-73
2021/12/01 00:11:00;;;;;;;16.58;10.40;;;4.90;80.90;;;;;;10824848;33;20040;-73
2021/12/01 00:17:03;;;;;;;18.70;14.07;;;4.80;81.20;;;;;;10808270;33;20042;-73
2021/12/01 00:23:05;;;;;;;16.08;10.88;;;4.80;81.20;;;;;;10824695;33;20024;-73
2021/12/01 00:29:07;;;;;;;20.17;11.27;;;4.80;81.30;;;;;;10828058;32;20023;-73
2021/12/01 00:35:09;;;;;;;17.75;11.32;;;4.80;81.20;;;;;;10817767;33;20081;-73
2021/12/01 00:41:12;;;;;;;14.77;9.23;;;4.70;81.30;;;;;;10817441;32;20020;-73
2021/12/01 00:47:15;;;;;;;16.12;10.68;;;4.80;81.40;;;;;;10830683;33;20055;-73
2021/12/01 00:53:17;;;;;;;14.15;10.88;;;4.60;81.20;;;;;;10830265;33;20032;-74
2021/12/01 00:59:19;;;;;;;15.55;10.93;;;4.50;81.90;;;;;;10830215;33;20032;-73
2021/12/01 01:05:21;;;;;;;21.50;14.43;;;4.60;81.80;;;;;;10829270;33;20028;-73
2021/12/01 01:17:52;;;;;;;13.45;9.57;;;4.70;81.30;;;;;;10829781;33;20403;-73
2021/12/01 01:23:54;;;;;;;;;;;4.60;81.60;;;;;;10829935;33;20032;-73
2021/12/01 01:29:56;;;;;;;12.57;9.70;;;4.60;81.50;;;;;;10829351;33;20309;-73
2021/12/01 01:35:58;;;;;;;12.80;8.43;;;4.60;81.20;;;;;;10826358;33;20047;-73
2021/12/01 01:42:00;;;;;;;16.12;11.48;;;4.40;81.00;;;;;;10478010;27;12127382;-73
2021/12/01 01:48:11;;;;;;;13.00;9.57;;;4.20;81.60;;;;;;10943716;32;20026;-73
2021/12/01 01:54:14;;;;;;;11.45;7.68;;;4.40;81.60;;;;;;10943317;32;20208;-73
2021/12/01 02:00:17;;;;;;;14.02;9.98;;;4.30;81.80;;;;;;10943569;32;20041;-73
2021/12/01 02:12:50;;;;;;;13.45;9.90;;;4.30;82.00;;;;;;10838068;32;20020;-73
2021/12/01 02:18:53;;;;;;;13.77;10.43;;;4.40;82.10;;;;;;10827953;33;20059;-73
2021/12/01 02:24:55;;;;;;;13.95;10.55;;;4.20;82.20;;;;;;10827879;33;20032;-73
2021/12/01 02:30:58;;;;;;;16.27;11.52;;;4.20;82.20;;;;;;10878299;32;20028;-73
2021/12/01 02:37:01;;;;;;;12.70;8.82;;;4.20;82.00;;;;;;10827361;33;20057;-73
2021/12/01 02:43:03;;;;;;;18.15;11.35;;;4.30;82.00;;;;;;10827350;33;20098;-74
2021/12/01 02:49:06;;;;;;;18.00;12.88;;;4.30;81.70;;;;;;10826829;32;20384;-73
2021/12/01 02:55:10;;;;;;;14.45;8.80;;;4.30;81.50;;;;;;10826917;33;20036;-73
2021/12/01 03:01:18;;;;;;;13.07;9.52;;;4.20;81.40;;;;;;10877356;32;20047;-74
2021/12/01 03:07:21;;;;;;;14.00;11.23;;;4.10;81.60;;;;;;10826722;33;20032;-74
2021/12/01 03:13:24;;;;;;;16.67;12.50;;;4.00;81.70;;;;;;10826597;33;20056;-73
2021/12/01 03:19:26;;;;;;;13.50;10.05;;;4.20;81.90;;;;;;10826097;33;20105;-73
2021/12/01 03:25:29;;;;;;;16.27;11.20;;;4.20;81.70;;;;;;10825986;33;20020;-73
2021/12/01 03:31:33;;;;;;;12.60;9.77;;;4.00;81.70;;;;;;10826000;33;20024;-73
2021/12/01 03:37:35;;;;;;;13.25;9.85;;;4.00;82.00;;;;;;10825561;33;20040;-73
2021/12/01 03:43:37;;;;;;;18.62;13.25;;;3.90;81.80;;;;;;10875465;32;20096;-73
2021/12/01 03:49:39;;;;;;;15.57;10.32;;;3.70;82.10;;;;;;10825599;33;20092;-73
2021/12/01 03:55:42;;;;;;;18.37;14.02;;;3.70;82.50;;;;;;10825301;33;20341;-73
2021/12/01 04:01:44;;;;;;;16.10;12.50;;;3.40;82.70;;;;;;10824362;32;20398;-73
2021/12/01 04:07:46;;;;;;;17.10;11.25;;;3.50;82.90;;;;;;10824915;33;20032;-73
2021/12/01 04:13:48;;;;;;;16.02;12.30;;;3.60;82.40;;;;;;10875332;32;20054;-74
2021/12/01 04:19:51;;;;;;;24.23;13.65;;;3.50;82.60;;;;;;10824591;33;20032;-73
2021/12/01 04:25:53;;;;;;;12.73;10.48;;;3.60;82.60;;;;;;10875217;32;20380;-73
2021/12/01 04:31:55;;;;;;;17.70;12.02;;;3.70;82.90;;;;;;10820284;33;20054;-73
2021/12/01 04:37:58;;;;;;;12.23;9.07;;;3.80;82.70;;;;;;10824211;33;20036;-74
2021/12/01 04:44:02;;;;;;;12.18;9.60;;;3.90;82.50;;;;;;10874510;32;20052;-74
2021/12/01 04:50:05;;;;;;;12.50;8.93;;;3.60;82.40;;;;;;10822517;33;20085;-74
2021/12/01 04:56:07;;;;;;;17.42;11.70;;;3.40;82.90;;;;;;10823913;33;20048;-76
2021/12/01 05:02:10;;;;;;;16.65;9.70;;;3.60;83.10;;;;;;10871922;32;20024;-74
2021/12/01 05:08:13;;;;;;;16.37;12.20;;;3.50;82.60;;;;;;10869958;32;20063;-74
2021/12/01 05:14:15;;;;;;;14.35;9.55;;;3.50;82.70;;;;;;10825485;32;20024;-73
2021/12/01 05:20:17;;;;;;;15.45;9.65;;;3.50;82.70;;;;;;10829648;33;20032;-74
2021/12/01 05:26:19;;;;;;;14.35;12.07;;;3.20;82.70;;;;;;10829448;33;20028;-73
2021/12/01 05:32:22;;;;;;;12.25;9.27;;;3.20;83.10;;;;;;10828384;33;20035;-74
2021/12/01 05:38:24;;;;;;;17.37;14.73;;;3.40;82.70;;;;;;10828053;33;20085;-74
2021/12/01 05:44:27;;;;;;;19.65;13.95;;;3.20;82.70;;;;;;10828909;33;20028;-74
2021/12/01 05:50:29;;;;;;;15.60;10.63;;;3.40;82.50;;;;;;10828721;33;20368;-73
2021/12/01 05:56:31;;;;;;;19.62;14.27;;;3.40;82.30;;;;;;10828645;33;20344;-74
2021/12/01 06:09:37;;;;;;;20.27;11.35;;;3.40;82.30;;;;;;10831023;32;20031;-74
2021/12/01 06:15:51;;;;;;;16.70;11.70;;;3.40;82.40;;;;;;10829686;32;20046;-73
2021/12/01 06:21:53;;;;;;;17.17;13.80;;;3.50;82.10;;;;;;10829546;32;20373;-74
2021/12/01 06:27:56;;;;;;;19.85;12.70;;;3.70;81.90;;;;;;10829666;32;20023;-70
2021/12/01 06:33:59;;;;;;;15.52;12.37;;;4.00;82.50;;;;;;10829973;32;20027;-70
2021/12/01 06:40:01;;;;;;;19.33;13.85;;;3.90;81.80;;;;;;10829699;32;20137;-70
2021/12/01 06:46:03;;;;;;;19.37;13.02;;;4.10;82.40;;;;;;10800214;32;20055;-70
2021/12/01 06:52:05;;;;;;;16.45;13.60;;;3.80;82.00;;;;;;10789089;33;20024;-70
2021/12/01 06:58:07;;;;;;;19.37;12.75;;;3.80;82.30;;;;;;10790069;33;20446;-70
2021/12/01 07:04:10;;;;;;;20.08;13.40;;;4.10;82.10;;;;;;10798765;33;20313;-70
2021/12/01 07:10:15;;;;;;;17.52;12.30;;;4.20;81.70;;;;;;10824474;33;20387;-73
2021/12/01 07:16:19;;;;;;;21.95;14.50;;;4.40;81.90;;;;;;10874305;32;20348;-75
2021/12/01 07:22:25;;;;;;;17.25;12.85;;;4.60;81.40;;;;;;10823159;33;20328;-75
2021/12/01 07:28:28;;;;;;;21.83;13.57;;;4.70;81.00;;;;;;10820764;33;20024;-75
2021/12/01 07:34:30;;;;;;;17.77;12.88;;;4.70;81.80;;;;;;10788817;33;20058;-75
2021/12/01 07:40:32;;;;;;;19.58;16.48;;;5.00;81.90;;;;;;10798250;33;20062;-75
2021/12/01 07:46:34;;;;;;;17.92;13.13;;;5.20;81.70;;;;;;10876187;32;20447;-75
2021/12/01 07:52:39;;;;;;;22.30;17.25;;;5.40;81.70;;;;;;10814221;33;20364;-75
2021/12/01 07:58:44;;;;;;;17.00;11.80;;;5.60;81.80;;;;;;10819808;33;20032;-75
2021/12/01 08:04:47;;;;;;;17.40;13.45;;;5.50;81.10;;;;;;10825001;33;20023;-74
2021/12/01 08:10:49;;;;;;;18.83;13.98;;;5.40;82.00;;;;;;10824403;33;20036;-74
2021/12/01 08:16:51;;;;;;;16.98;13.23;;;5.60;82.00;;;;;;10824668;33;20054;-74
2021/12/01 08:22:54;;;;;;;17.20;14.02;;;5.80;81.80;;;;;;10823747;33;20024;-74
2021/12/01 08:28:56;;;;;;;16.25;12.80;;;5.80;81.40;;;;;;10823536;33;20028;-74
2021/12/01 08:34:58;;;;;;;17.40;12.50;;;5.60;81.50;;;;;;10874660;32;20023;-74
2021/12/01 08:41:00;;;;;;;14.27;10.68;;;5.60;82.10;;;;;;10820145;33;20032;-74
2021/12/01 08:47:04;;;;;;;14.68;10.02;;;5.80;81.90;;;;;;10823778;32;20051;-74
2021/12/01 08:53:06;;;;;;;16.70;10.77;;;5.80;81.90;;;;;;10826129;33;20388;-74
2021/12/01 08:59:08;;;;;;;13.48;10.73;;;6.10;81.70;;;;;;10829956;33;20058;-74
2021/12/01 09:05:10;;;;;;;15.23;10.85;;;6.30;81.30;;;;;;10829816;33;20028;-74
2021/12/01 09:11:12;;;;;;;15.05;10.77;;;6.60;81.00;;;;;;10829674;33;20294;-74
2021/12/01 09:17:15;;;;;;;14.85;10.60;;;6.60;81.00;;;;;;10829454;33;20086;-74
2021/12/01 09:23:17;;;;;;;13.65;9.05;;;6.60;81.10;;;;;;10829283;33;20328;-74
2021/12/01 09:29:19;;;;;;;15.13;10.98;;;6.60;80.90;;;;;;10828920;33;20050;-74
2021/12/01 09:35:22;;;;;;;14.82;10.13;;;6.30;81.70;;;;;;10880039;32;20047;-74
2021/12/01 09:41:24;;;;;;;11.48;8.90;;;6.50;82.10;;;;;;10830830;27;20050;-74
2021/12/01 09:47:27;;;;;;;11.70;10.05;;;6.80;81.90;;;;;;10792066;33;20344;-74
2021/12/01 09:53:29;;;;;;;11.55;8.48;;;7.10;81.60;;;;;;10778663;33;20066;-73
2021/12/01 09:59:31;;;;;;;17.10;9.05;;;6.90;81.90;;;;;;10790532;33;20393;-74
2021/12/01 10:06:09;;;;;;;12.13;8.27;;;7.20;82.50;;;;;;10791432;32;20031;-74
2021/12/01 10:12:12;;;;;;;11.10;7.65;;;7.20;82.10;;;;;;10787386;32;20418;-74
2021/12/01 10:18:16;;;;;;;11.07;6.30;;;7.30;82.50;;;;;;10777487;33;20110;-74
2021/12/01 10:24:27;;;;;;;9.63;6.80;;;7.50;82.70;;;;;;10790921;33;20471;-74
2021/12/01 10:30:41;;;;;;;9.48;7.75;;;7.70;82.50;;;;;;10790480;33;20047;-74
2021/12/01 10:36:46;;;;;;;12.18;6.20;;;7.80;82.30;;;;;;10790072;32;20040;-74
2021/12/01 10:42:54;;;;;;;12.15;6.37;;;7.90;82.20;;;;;;10788878;33;20047;-74
2021/12/01 10:49:02;;;;;;;13.32;7.18;;;8.10;82.50;;;;;;10786860;33;20016;-70
2021/12/01 10:55:17;;;;;;;8.82;5.30;;;8.30;82.50;;;;;;10790105;32;20093;-70
2021/12/01 11:01:24;;;;;;;11.38;7.72;;;8.60;82.00;;;;;;10785748;33;20431;-70
2021/12/01 11:07:31;;;;;;;8.60;4.65;;;8.90;81.60;;;;;;10789030;33;20016;-70
2021/12/01 11:14:02;;;;;;;12.37;7.93;;;9.20;81.40;;;;;;10788890;33;20017;-70
2021/12/01 11:20:07;;;;;;;8.75;5.57;;;9.20;81.00;;;;;;10789300;33;20059;-70
2021/12/01 11:26:15;;;;;;;6.95;4.60;;;9.30;81.00;;;;;;10789300;33;20428;-69
2021/12/01 11:32:17;;;;;;;7.00;5.63;;;9.50;80.90;;;;;;10789014;33;20024;-69
2021/12/01 11:38:20;;;;;;;7.72;5.32;;;9.50;80.70;;;;;;10788686;33;20423;-70
2021/12/01 11:44:25;;;;;;;20.80;9.23;;;9.50;80.90;;;;;;10788697;33;20043;-73
2021/12/01 11:50:31;;;;;;;8.23;6.22;;;9.30;79.40;;;;;;10775367;32;20401;-74
2021/12/01 11:56:36;;;;;;;8.02;5.22;;;9.00;80.20;;;;;;10774674;33;20336;-73
2021/12/01 12:02:38;;;;;;;11.20;5.72;;;9.10;80.20;;;;;;10786834;33;20054;-73
2021/12/01 12:09:00;;;;;;;7.15;5.28;;;9.20;80.40;;;;;;10754455;33;20122;-73
2021/12/01 12:15:03;;;;;;;7.87;5.28;;;9.30;80.30;;;;;;10762067;33;20045;-73
2021/12/01 12:21:24;;;;;;;8.52;4.90;;;9.40;79.90;;;;;;10774340;33;20059;-73
2021/12/01 12:27:28;;;;;;;10.63;5.62;;;9.30;79.90;;;;;;10787441;33;20020;-73
2021/12/01 12:33:34;;;;;;;9.43;5.87;;;9.10;80.10;;;;;;10787566;33;20106;-73
2021/12/01 12:39:46;;;;;;;10.02;5.85;;;8.90;79.80;;;;;;10787391;33;20037;-73
2021/12/01 12:46:03;;;;;;;9.05;6.47;;;8.70;80.00;;;;;;10787233;33;20336;-73
2021/12/01 12:52:26;;;;;;;11.43;6.62;;;8.80;80.50;;;;;;10783014;33;20032;-73
2021/12/01 12:58:37;;;;;;;11.25;7.32;;;8.70;80.30;;;;;;10782124;33;20036;-72
2021/12/01 13:04:49;;;;;;;9.50;6.00;;;8.80;80.90;;;;;;10786760;33;20029;-73
2021/12/01 13:10:50;;;;;;;6.40;4.43;;;8.90;80.90;;;;;;10786972;33;20389;-72
2021/12/01 13:17:01;;;;;;;9.35;6.60;;;9.10;81.10;;;;;;10786515;33;20396;-72
2021/12/01 13:23:19;;;;;;;8.63;5.72;;;9.20;81.10;;;;;;10785963;33;20020;-72
2021/12/01 13:29:21;;;;;;;11.98;7.62;;;9.40;81.20;;;;;;10786214;33;20043;-72
2021/12/01 13:35:29;;;;;;;9.38;6.20;;;9.40;81.10;;;;;;10788708;33;20024;-72
2021/12/01 13:41:40;;;;;;;9.43;5.17;;;9.40;81.00;;;;;;10792195;33;20033;-72
2021/12/01 13:47:44;;;;;;;10.13;7.05;;;9.40;81.30;;;;;;10792103;33;20016;-73
2021/12/01 13:53:46;;;;;;;8.48;6.03;;;9.40;81.30;;;;;;10791958;32;20017;-73
2021/12/01 13:59:52;;;;;;;9.15;6.05;;;9.30;81.50;;;;;;10791800;33;20028;-74
2021/12/01 14:05:56;;;;;;;8.02;5.18;;;9.40;81.60;;;;;;10791670;33;20021;-70
2021/12/01 14:11:59;;;;;;;6.90;4.60;;;9.30;81.80;;;;;;10791596;33;20329;-70
2021/12/01 14:18:02;;;;;;;5.80;4.22;;;9.30;82.00;;;;;;10791376;33;20020;-70
2021/12/01 14:24:33;;;;;;;9.00;5.82;;;9.20;82.20;;;;;;10791200;32;20047;-70
2021/12/01 14:37:48;;;;;;;8.38;5.60;;;9.20;82.20;;;;;;10790629;33;20337;-70
2021/12/01 14:44:22;;;;;;;9.95;6.47;;;9.10;82.30;;;;;;10780085;33;20055;-70
2021/12/01 14:50:25;;;;;;;9.05;5.97;;;9.10;82.40;;;;;;10781984;33;20059;-74
2021/12/01 14:56:26;;;;;;;8.88;4.95;;;9.00;82.40;;;;;;10789316;33;20040;-74
2021/12/01 15:02:28;;;;;;;9.93;6.10;;;9.00;82.40;;;;;;10789276;33;20081;-74
2021/12/01 15:08:42;;;;;;;7.32;5.65;;;9.00;82.50;;;;;;10789897;33;20023;-74
2021/12/01 15:14:44;;;;;;;15.63;8.98;;;8.90;82.30;;;;;;10789779;33;20368;-74
2021/12/01 15:21:17;;;;;;;8.00;5.90;;;9.00;82.50;;;;;;10788806;32;20055;-74
2021/12/01 15:27:19;;;;;;;9.50;7.07;;;8.90;82.40;;;;;;10787902;32;20291;-74
2021/12/01 15:33:22;;;;;;;9.70;5.82;;;8.90;82.50;;;;;;10790339;33;20032;-74
2021/12/01 15:39:26;;;;;;;19.75;11.68;;;8.70;82.80;;;;;;10791024;33;20051;-74
2021/12/01 15:45:28;;;;;;;12.68;7.90;;;8.70;82.70;;;;;;10789260;33;20028;-74
2021/12/01 15:51:31;;;;;;;9.82;7.37;;;8.50;82.10;;;;;;10778539;33;20047;-74
2021/12/01 15:57:33;;;;;;;9.00;5.65;;;8.40;82.70;;;;;;10787283;33;20044;-74
2021/12/01 16:03:35;;;;;;;11.93;7.15;;;8.50;82.70;;;;;;10786924;33;20055;-74
2021/12/01 16:09:38;;;;;;;10.23;7.70;;;8.60;82.40;;;;;;10786005;33;20033;-74
2021/12/01 16:15:40;;;;;;;11.38;7.90;;;8.70;82.20;;;;;;10788125;33;20442;-74
2021/12/01 16:21:45;;;;;;;9.98;7.68;;;8.70;82.20;;;;;;10785343;32;20328;-74
2021/12/01 16:27:48;;;;;;;9.68;7.03;;;8.60;82.20;;;;;;10787866;33;20017;-74
2021/12/01 16:33:50;;;;;;;11.43;8.45;;;8.70;82.30;;;;;;10787819;33;20200;-74
2021/12/01 16:39:52;;;;;;;10.68;7.10;;;8.60;82.30;;;;;;10787588;33;20032;-74
2021/12/01 16:45:54;;;;;;;10.77;7.97;;;8.80;82.20;;;;;;10773439;33;20125;-74
2021/12/01 16:51:57;;;;;;;11.02;7.37;;;8.70;81.90;;;;;;10787234;33;20332;-74
2021/12/01 16:57:59;;;;;;;12.15;8.43;;;8.70;82.20;;;;;;10787018;33;20059;-75
2021/12/01 17:04:07;;;;;;;11.75;8.25;;;8.70;82.10;;;;;;10786814;32;20024;-74
2021/12/01 17:10:09;;;;;;;12.15;9.05;;;8.80;81.90;;;;;;10788506;33;20028;-75
2021/12/01 17:16:14;;;;;;;18.95;10.35;;;9.00;81.80;;;;;;10793270;32;20339;-74
2021/12/01 17:22:16;;;;;;;14.00;10.48;;;9.00;81.40;;;;;;10792548;33;20039;-75
2021/12/01 17:28:21;;;;;;;14.45;9.57;;;8.80;81.60;;;;;;10792871;32;20024;-74
2021/12/01 17:34:23;;;;;;;19.00;14.68;;;8.90;81.70;;;;;;10792666;33;20025;-74
2021/12/01 17:40:25;;;;;;;11.73;8.60;;;8.90;81.60;;;;;;10792295;33;20072;-74
2021/12/01 17:46:27;;;;;;;13.38;9.15;;;8.90;81.40;;;;;;10827574;27;20040;-74
2021/12/01 17:52:30;;;;;;;19.50;11.75;;;8.60;81.50;;;;;;10829069;33;20024;-74
2021/12/01 17:58:32;;;;;;;16.48;13.98;;;8.40;82.10;;;;;;10875344;32;20087;-74
2021/12/01 18:04:34;;;;;;;17.70;13.02;;;8.70;82.10;;;;;;10819839;33;20032;-74
2021/12/01 18:10:42;;;;;;;13.75;11.40;;;8.70;81.60;;;;;;10827741;33;20028;-74
2021/12/01 18:16:44;;;;;;;22.67;14.40;;;8.70;81.60;;;;;;10824551;33;20192;-74
2021/12/01 18:22:46;;;;;;;16.87;11.23;;;8.80;81.50;;;;;;10827105;32;20032;-74
2021/12/01 18:28:49;;;;;;;18.65;14.02;;;8.80;81.40;;;;;;10827803;33;20065;-75
2021/12/01 18:34:51;;;;;;;18.45;12.07;;;8.70;81.40;;;;;;10823338;33;20311;-74
2021/12/01 18:40:53;;;;;;;13.90;10.27;;;8.60;81.70;;;;;;10827511;33;20047;-74
2021/12/01 18:46:59;;;;;;;15.23;11.57;;;8.70;81.70;;;;;;10827020;33;20359;-73
2021/12/01 18:53:01;;;;;;;17.35;10.77;;;8.60;81.80;;;;;;10825927;33;20028;-75
2021/12/01 18:59:04;;;;;;;16.85;13.38;;;8.50;81.80;;;;;;10827052;33;20024;-74
2021/12/01 19:05:07;;;;;;;16.45;11.38;;;8.30;82.00;;;;;;10826703;33;20031;-74
2021/12/01 19:11:13;;;;;;;15.32;12.55;;;8.30;82.20;;;;;;10826609;33;20416;-74
2021/12/01 19:17:16;;;;;;;17.87;12.63;;;8.40;82.10;;;;;;10826186;33;20055;-74
2021/12/01 19:23:18;;;;;;;18.83;14.77;;;8.50;82.00;;;;;;10826067;33;20039;-74
2021/12/01 19:29:21;;;;;;;24.55;13.88;;;8.30;81.80;;;;;;10823553;33;20021;-74
2021/12/01 19:35:25;;;;;;;21.58;15.43;;;8.20;82.10;;;;;;10825215;32;20027;-74
2021/12/01 19:41:27;;;;;;;21.23;14.55;;;8.10;82.50;;;;;;10825574;32;20400;-74
2021/12/01 19:47:30;;;;;;;23.17;16.02;;;8.00;82.60;;;;;;10825430;33;20039;-74
2021/12/01 19:53:33;;;;;;;26.10;20.77;;;8.20;82.60;;;;;;10825299;33;20051;-74
2021/12/01 19:59:35;;;;;;;24.77;20.55;;;8.30;82.30;;;;;;10825143;33;20098;-74
2021/12/01 20:05:38;;;;;;;20.85;15.98;;;8.50;82.20;;;;;;10825123;33;20024;-74
2021/12/01 20:11:41;;;;;;;26.12;19.50;;;8.40;81.90;;;;;;10870853;32;20365;-74
2021/12/01 20:17:47;;;;;;;20.40;14.68;;;8.40;82.20;;;;;;10788132;33;20059;-74
2021/12/01 20:23:57;;;;;;;22.37;15.85;;;8.40;82.10;;;;;;10787956;33;20332;-74
2021/12/01 20:29:59;;;;;;;19.10;14.50;;;8.20;82.10;;;;;;10787927;32;20336;-73
2021/12/01 20:36:05;;;;;;;19.40;15.13;;;8.20;82.40;;;;;;10787602;32;20395;-74
2021/12/01 20:42:08;;;;;;;31.58;24.58;;;8.20;82.40;;;;;;10787616;32;20377;-74
2021/12/01 21:07:14;;;;;;;25.23;18.25;;;8.40;82.60;;;;;;10805863;33;20023;-69
2021/12/01 21:13:16;;;;;;;19.77;16.42;;;8.50;82.50;;;;;;10830015;33;20081;-74
2021/12/01 21:19:22;;;;;;;22.23;18.62;;;8.20;82.20;;;;;;10829860;33;20028;-74
2021/12/01 21:25:24;;;;;;;26.83;21.60;;;8.00;82.70;;;;;;10829768;33;20344;-74
2021/12/01 21:31:27;;;;;;;24.67;19.52;;;8.10;83.00;;;;;;10829640;33;20422;-74
2021/12/01 21:37:30;;;;;;;31.62;23.20;;;8.10;82.80;;;;;;10829429;33;20260;-73
2021/12/01 21:43:32;;;;;;;23.58;18.67;;;8.10;82.80;;;;;;10829254;33;20384;-73
2021/12/01 21:49:35;;;;;;;19.15;16.17;;;8.20;82.80;;;;;;10829064;33;20020;-73
2021/12/01 21:55:39;;;;;;;17.85;13.95;;;8.20;82.60;;;;;;10828879;32;20020;-73
2021/12/01 22:01:42;;;;;;;21.67;17.62;;;8.30;82.60;;;;;;10828712;33;20019;-73
2021/12/01 22:07:45;;;;;;;23.70;16.20;;;8.20;82.60;;;;;;10828249;33;20055;-73
2021/12/01 22:13:48;;;;;;;28.73;19.15;;;8.20;82.60;;;;;;10827619;33;20423;-73
2021/12/01 22:19:56;;;;;;;28.38;23.02;;;8.30;82.90;;;;;;10828167;33;20024;-73
2021/12/01 22:26:12;;;;;;;27.70;22.58;;;8.30;82.70;;;;;;10827925;33;20050;-73
2021/12/01 22:32:18;;;;;;;20.00;16.92;;;8.30;82.80;;;;;;10827913;33;20039;-73
2021/12/01 22:38:22;;;;;;;32.42;24.05;;;8.40;82.80;;;;;;10827468;33;20032;-73
2021/12/01 22:44:25;;;;;;;32.97;24.20;;;8.20;82.70;;;;;;10878240;32;20321;-73
2021/12/01 22:50:30;;;;;;;21.80;17.20;;;8.30;82.90;;;;;;10826452;33;20019;-73
2021/12/01 22:56:35;;;;;;;29.75;26.12;;;8.30;82.70;;;;;;10827187;33;20411;-73
2021/12/01 23:02:39;;;;;;;36.05;27.23;;;8.30;82.80;;;;;;10826900;33;20063;-74
2021/12/01 23:08:41;;;;;;;25.62;19.37;;;8.30;82.80;;;;;;10826385;32;20020;-73
2021/12/01 23:14:43;;;;;;;20.35;15.88;;;8.30;82.70;;;;;;10823758;33;20016;-74
2021/12/01 23:20:46;;;;;;;26.62;19.35;;;8.10;82.70;;;;;;10826512;33;20060;-73
2021/12/01 23:33:29;;;;;;;21.87;17.65;;;8.20;83.20;;;;;;10826201;33;20016;-73
2021/12/01 23:39:34;;;;;;;29.20;22.35;;;8.20;83.10;;;;;;10825932;33;20042;-74
2021/12/01 23:51:39;;;;;;;22.92;19.10;;;8.20;83.00;;;;;;10826208;33;20050;-74
2021/12/01 23:57:42;;;;;;;21.35;17.77;;;8.20;83.20;;;;;;10825540;33;20426;-74
